sensor_id;sensor_type;location;lat;lon;timestamp;temperature;humidity
17845;DHT22;9047;53.486;10.218;2023-06-14T00:01:20;14.70;99.90
17845;DHT22;9047;53.486;10.218;2023-06-14T00:03:48;14.60;99.90
17845;DHT22;9047;53.486;10.218;2023-06-14T00:06:15;14.50;99.90
17845;DHT22;9047;53.486;10.218;2023-06-14T00:08:42;14.50;99.90
17845;DHT22;9047;53.486;10.218;2023-06-14T00:11:09;14.50;99.90
17845;DHT22;9047;53.486;10.218;2023-06-14T00:13:36;14.40;99.90
17845;DHT22;9047;53.486;10.218;2023-06-14T00:16:03;14.40;99.90
17845;DHT22;9047;53.486;10.218;2023-06-14T00:18:30;14.40;99.90
17845;DHT22;9047;53.486;10.218;2023-06-14T00:20:59;14.40;99.90
17845;DHT22;9047;53.486;10.218;2023-06-14T00:23:27;14.30;99.90
17845;DHT22;9047;53.486;10.218;2023-06-14T00:25:54;14.30;99.90
17845;DHT22;9047;53.486;10.218;2023-06-14T00:28:21;14.30;99.90
17845;DHT22;9047;53.486;10.218;2023-06-14T00:30:48;14.20;99.90
17845;DHT22;9047;53.486;10.218;2023-06-14T00:33:14;14.20;99.90
17845;DHT22;9047;53.486;10.218;2023-06-14T00:35:41;14.20;99.90
17845;DHT22;9047;53.486;10.218;2023-06-14T00:38:09;14.10;99.90
17845;DHT22;9047;53.486;10.218;2023-06-14T00:40:36;14.10;99.90
17845;DHT22;9047;53.486;10.218;2023-06-14T00:43:03;14.10;99.90
17845;DHT22;9047;53.486;10.218;2023-06-14T00:45:29;14.10;99.90
17845;DHT22;9047;53.486;10.218;2023-06-14T00:48:01;14.00;99.90
17845;DHT22;9047;53.486;10.218;2023-06-14T00:50:28;13.90;99.90
17845;DHT22;9047;53.486;10.218;2023-06-14T00:52:57;13.90;99.90
17845;DHT22;9047;53.486;10.218;2023-06-14T00:55:26;13.80;99.90
17845;DHT22;9047;53.486;10.218;2023-06-14T00:57:54;13.80;99.90
17845;DHT22;9047;53.486;10.218;2023-06-14T01:00:21;13.80;99.90
17845;DHT22;9047;53.486;10.218;2023-06-14T01:02:48;13.70;99.90
17845;DHT22;9047;53.486;10.218;2023-06-14T01:05:16;13.70;99.90
17845;DHT22;9047;53.486;10.218;2023-06-14T01:07:55;13.70;99.90
17845;DHT22;9047;53.486;10.218;2023-06-14T01:10:34;13.60;99.90
17845;DHT22;9047;53.486;10.218;2023-06-14T01:13:07;13.60;99.90
17845;DHT22;9047;53.486;10.218;2023-06-14T01:15:36;13.50;99.90
17845;DHT22;9047;53.486;10.218;2023-06-14T01:18:04;13.50;99.90
17845;DHT22;9047;53.486;10.218;2023-06-14T01:20:33;13.50;99.90
17845;DHT22;9047;53.486;10.218;2023-06-14T01:23:03;13.50;99.90
17845;DHT22;9047;53.486;10.218;2023-06-14T01:25:33;13.40;99.90
17845;DHT22;9047;53.486;10.218;2023-06-14T01:28:03;13.40;99.90
17845;DHT22;9047;53.486;10.218;2023-06-14T01:30:37;13.40;99.90
17845;DHT22;9047;53.486;10.218;2023-06-14T01:33:05;13.30;99.90
17845;DHT22;9047;53.486;10.218;2023-06-14T01:35:32;13.40;99.90
17845;DHT22;9047;53.486;10.218;2023-06-14T01:37:59;13.30;99.90
17845;DHT22;9047;53.486;10.218;2023-06-14T01:40:28;13.30;99.90
17845;DHT22;9047;53.486;10.218;2023-06-14T01:42:55;13.30;99.90
17845;DHT22;9047;53.486;10.218;2023-06-14T01:45:22;13.20;99.90
17845;DHT22;9047;53.486;10.218;2023-06-14T01:47:50;13.20;99.90
17845;DHT22;9047;53.486;10.218;2023-06-14T01:50:18;13.10;99.90
17845;DHT22;9047;53.486;10.218;2023-06-14T01:52:45;13.10;99.90
17845;DHT22;9047;53.486;10.218;2023-06-14T01:55:12;13.10;99.90
17845;DHT22;9047;53.486;10.218;2023-06-14T01:57:40;13.10;99.90
17845;DHT22;9047;53.486;10.218;2023-06-14T02:00:08;13.10;99.90
17845;DHT22;9047;53.486;10.218;2023-06-14T02:02:38;13.10;99.90
17845;DHT22;9047;53.486;10.218;2023-06-14T02:05:05;13.10;99.90
17845;DHT22;9047;53.486;10.218;2023-06-14T02:07:32;13.00;99.90
17845;DHT22;9047;53.486;10.218;2023-06-14T02:09:58;13.00;99.90
17845;DHT22;9047;53.486;10.218;2023-06-14T02:12:25;13.00;99.90
17845;DHT22;9047;53.486;10.218;2023-06-14T02:14:53;13.00;99.90
17845;DHT22;9047;53.486;10.218;2023-06-14T02:17:21;13.00;99.90
17845;DHT22;9047;53.486;10.218;2023-06-14T02:19:48;13.00;99.90
17845;DHT22;9047;53.486;10.218;2023-06-14T02:22:16;13.00;99.90
17845;DHT22;9047;53.486;10.218;2023-06-14T02:24:42;12.90;99.90
17845;DHT22;9047;53.486;10.218;2023-06-14T02:27:10;12.90;99.90
17845;DHT22;9047;53.486;10.218;2023-06-14T02:29:37;12.90;99.90
17845;DHT22;9047;53.486;10.218;2023-06-14T02:32:06;12.90;99.90
17845;DHT22;9047;53.486;10.218;2023-06-14T02:34:33;12.90;99.90
17845;DHT22;9047;53.486;10.218;2023-06-14T02:37:00;12.90;99.90
17845;DHT22;9047;53.486;10.218;2023-06-14T02:39:28;12.90;99.90
17845;DHT22;9047;53.486;10.218;2023-06-14T02:41:55;12.90;99.90
17845;DHT22;9047;53.486;10.218;2023-06-14T02:44:24;12.90;99.90
17845;DHT22;9047;53.486;10.218;2023-06-14T02:46:52;12.90;99.90
17845;DHT22;9047;53.486;10.218;2023-06-14T02:49:20;12.90;99.90
17845;DHT22;9047;53.486;10.218;2023-06-14T02:51:47;12.80;99.90
17845;DHT22;9047;53.486;10.218;2023-06-14T02:54:14;12.80;99.90
17845;DHT22;9047;53.486;10.218;2023-06-14T02:56:41;12.80;99.90
17845;DHT22;9047;53.486;10.218;2023-06-14T02:59:08;12.80;99.90
17845;DHT22;9047;53.486;10.218;2023-06-14T03:01:35;12.80;99.90
17845;DHT22;9047;53.486;10.218;2023-06-14T03:04:06;12.80;99.90
17845;DHT22;9047;53.486;10.218;2023-06-14T03:06:34;12.80;99.90
17845;DHT22;9047;53.486;10.218;2023-06-14T03:09:02;12.70;99.90
17845;DHT22;9047;53.486;10.218;2023-06-14T03:11:30;12.80;99.90
17845;DHT22;9047;53.486;10.218;2023-06-14T03:13:58;12.80;99.90
17845;DHT22;9047;53.486;10.218;2023-06-14T03:16:24;12.80;99.90
17845;DHT22;9047;53.486;10.218;2023-06-14T03:18:54;12.70;99.90
17845;DHT22;9047;53.486;10.218;2023-06-14T03:21:21;12.80;99.90
17845;DHT22;9047;53.486;10.218;2023-06-14T03:23:49;12.70;99.90
17845;DHT22;9047;53.486;10.218;2023-06-14T03:26:16;12.80;99.90
17845;DHT22;9047;53.486;10.218;2023-06-14T03:28:44;12.80;99.90
17845;DHT22;9047;53.486;10.218;2023-06-14T03:31:10;12.80;99.90
17845;DHT22;9047;53.486;10.218;2023-06-14T03:33:37;12.80;99.90
17845;DHT22;9047;53.486;10.218;2023-06-14T03:36:05;12.90;99.90
17845;DHT22;9047;53.486;10.218;2023-06-14T03:38:32;12.90;99.90
17845;DHT22;9047;53.486;10.218;2023-06-14T03:41:00;12.90;99.90
17845;DHT22;9047;53.486;10.218;2023-06-14T03:43:27;12.90;99.90
17845;DHT22;9047;53.486;10.218;2023-06-14T03:45:55;12.90;99.90
17845;DHT22;9047;53.486;10.218;2023-06-14T03:48:22;12.90;99.90
17845;DHT22;9047;53.486;10.218;2023-06-14T03:50:49;12.90;99.90
17845;DHT22;9047;53.486;10.218;2023-06-14T03:53:16;13.00;99.90
17845;DHT22;9047;53.486;10.218;2023-06-14T03:55:43;13.00;99.90
17845;DHT22;9047;53.486;10.218;2023-06-14T03:58:11;13.00;99.90
17845;DHT22;9047;53.486;10.218;2023-06-14T04:00:38;13.00;99.90
17845;DHT22;9047;53.486;10.218;2023-06-14T04:03:05;13.10;99.90
17845;DHT22;9047;53.486;10.218;2023-06-14T04:05:32;13.10;99.90
17845;DHT22;9047;53.486;10.218;2023-06-14T04:07:59;13.20;99.90
17845;DHT22;9047;53.486;10.218;2023-06-14T04:10:26;13.20;99.90
17845;DHT22;9047;53.486;10.218;2023-06-14T04:12:53;13.30;99.90
17845;DHT22;9047;53.486;10.218;2023-06-14T04:15:21;13.30;99.90
17845;DHT22;9047;53.486;10.218;2023-06-14T04:17:48;13.40;99.90
17845;DHT22;9047;53.486;10.218;2023-06-14T04:20:15;13.50;99.90
17845;DHT22;9047;53.486;10.218;2023-06-14T04:22:42;13.60;99.90
17845;DHT22;9047;53.486;10.218;2023-06-14T04:25:09;13.70;99.90
17845;DHT22;9047;53.486;10.218;2023-06-14T04:27:38;14.00;99.90
17845;DHT22;9047;53.486;10.218;2023-06-14T04:30:06;14.30;99.90
17845;DHT22;9047;53.486;10.218;2023-06-14T04:32:34;14.60;99.90
17845;DHT22;9047;53.486;10.218;2023-06-14T04:35:05;14.80;99.90
17845;DHT22;9047;53.486;10.218;2023-06-14T04:37:32;14.90;99.90
17845;DHT22;9047;53.486;10.218;2023-06-14T04:40:00;14.90;99.90
17845;DHT22;9047;53.486;10.218;2023-06-14T04:42:30;14.90;99.90
17845;DHT22;9047;53.486;10.218;2023-06-14T04:44:57;14.80;99.90
17845;DHT22;9047;53.486;10.218;2023-06-14T04:47:24;14.80;99.90
17845;DHT22;9047;53.486;10.218;2023-06-14T04:49:56;14.70;99.90
17845;DHT22;9047;53.486;10.218;2023-06-14T04:52:26;14.70;99.90
17845;DHT22;9047;53.486;10.218;2023-06-14T04:54:55;14.70;99.90
17845;DHT22;9047;53.486;10.218;2023-06-14T04:57:22;14.70;99.90
17845;DHT22;9047;53.486;10.218;2023-06-14T04:59:51;14.70;99.90
17845;DHT22;9047;53.486;10.218;2023-06-14T05:02:21;14.80;99.90
17845;DHT22;9047;53.486;10.218;2023-06-14T05:04:49;14.80;99.90
17845;DHT22;9047;53.486;10.218;2023-06-14T05:07:18;14.80;99.90
17845;DHT22;9047;53.486;10.218;2023-06-14T05:09:45;14.80;99.90
17845;DHT22;9047;53.486;10.218;2023-06-14T05:12:12;14.90;99.90
17845;DHT22;9047;53.486;10.218;2023-06-14T05:14:45;15.00;99.90
17845;DHT22;9047;53.486;10.218;2023-06-14T05:17:11;15.00;99.90
17845;DHT22;9047;53.486;10.218;2023-06-14T05:19:42;15.10;99.90
17845;DHT22;9047;53.486;10.218;2023-06-14T05:22:09;15.10;99.90
17845;DHT22;9047;53.486;10.218;2023-06-14T05:24:37;15.30;99.90
17845;DHT22;9047;53.486;10.218;2023-06-14T05:27:05;15.30;99.90
17845;DHT22;9047;53.486;10.218;2023-06-14T05:29:32;15.30;99.90
17845;DHT22;9047;53.486;10.218;2023-06-14T05:31:59;15.40;99.90
17845;DHT22;9047;53.486;10.218;2023-06-14T05:34:26;15.50;99.90
17845;DHT22;9047;53.486;10.218;2023-06-14T05:36:53;15.50;99.90
17845;DHT22;9047;53.486;10.218;2023-06-14T05:39:21;15.70;99.90
17845;DHT22;9047;53.486;10.218;2023-06-14T05:41:52;15.70;99.90
17845;DHT22;9047;53.486;10.218;2023-06-14T05:44:19;15.80;99.90
17845;DHT22;9047;53.486;10.218;2023-06-14T05:46:48;15.90;99.90
17845;DHT22;9047;53.486;10.218;2023-06-14T05:49:16;16.00;99.90
17845;DHT22;9047;53.486;10.218;2023-06-14T05:51:43;16.10;99.90
17845;DHT22;9047;53.486;10.218;2023-06-14T05:54:11;16.20;99.90
17845;DHT22;9047;53.486;10.218;2023-06-14T05:56:38;16.30;99.90
17845;DHT22;9047;53.486;10.218;2023-06-14T05:59:09;16.40;99.90
17845;DHT22;9047;53.486;10.218;2023-06-14T06:01:36;16.50;99.90
17845;DHT22;9047;53.486;10.218;2023-06-14T06:04:06;16.60;99.90
17845;DHT22;9047;53.486;10.218;2023-06-14T06:06:32;16.70;99.90
17845;DHT22;9047;53.486;10.218;2023-06-14T06:09:01;16.80;99.90
17845;DHT22;9047;53.486;10.218;2023-06-14T06:11:28;17.00;99.90
17845;DHT22;9047;53.486;10.218;2023-06-14T06:13:55;17.20;99.90
17845;DHT22;9047;53.486;10.218;2023-06-14T06:16:23;17.30;99.90
17845;DHT22;9047;53.486;10.218;2023-06-14T06:18:50;17.50;99.90
17845;DHT22;9047;53.486;10.218;2023-06-14T06:21:17;17.70;99.90
17845;DHT22;9047;53.486;10.218;2023-06-14T06:23:44;18.00;99.90
17845;DHT22;9047;53.486;10.218;2023-06-14T06:26:11;18.60;99.90
17845;DHT22;9047;53.486;10.218;2023-06-14T06:28:38;19.60;99.90
17845;DHT22;9047;53.486;10.218;2023-06-14T06:31:05;20.50;99.90
17845;DHT22;9047;53.486;10.218;2023-06-14T06:33:36;21.50;99.90
17845;DHT22;9047;53.486;10.218;2023-06-14T06:36:05;22.40;99.90
17845;DHT22;9047;53.486;10.218;2023-06-14T06:38:33;23.30;99.90
17845;DHT22;9047;53.486;10.218;2023-06-14T06:41:00;23.90;98.90
17845;DHT22;9047;53.486;10.218;2023-06-14T06:43:27;24.50;97.70
17845;DHT22;9047;53.486;10.218;2023-06-14T06:45:55;24.90;96.50
17845;DHT22;9047;53.486;10.218;2023-06-14T06:48:22;25.30;95.70
17845;DHT22;9047;53.486;10.218;2023-06-14T06:50:51;25.70;94.40
17845;DHT22;9047;53.486;10.218;2023-06-14T06:53:18;26.10;93.20
17845;DHT22;9047;53.486;10.218;2023-06-14T06:55:52;26.30;93.30
17845;DHT22;9047;53.486;10.218;2023-06-14T06:58:19;26.60;91.60
17845;DHT22;9047;53.486;10.218;2023-06-14T07:00:49;26.90;91.10
17845;DHT22;9047;53.486;10.218;2023-06-14T07:03:20;27.00;90.50
17845;DHT22;9047;53.486;10.218;2023-06-14T07:05:46;27.20;88.90
17845;DHT22;9047;53.486;10.218;2023-06-14T07:08:15;27.50;86.20
17845;DHT22;9047;53.486;10.218;2023-06-14T07:10:42;27.60;86.80
17845;DHT22;9047;53.486;10.218;2023-06-14T07:13:09;27.80;85.70
17845;DHT22;9047;53.486;10.218;2023-06-14T07:15:36;28.00;84.10
17845;DHT22;9047;53.486;10.218;2023-06-14T07:18:04;28.20;84.20
17845;DHT22;9047;53.486;10.218;2023-06-14T07:20:32;28.20;84.10
17845;DHT22;9047;53.486;10.218;2023-06-14T07:22:59;28.20;82.50
17845;DHT22;9047;53.486;10.218;2023-06-14T07:25:31;28.40;82.60
17845;DHT22;9047;53.486;10.218;2023-06-14T07:27:58;28.40;82.10
17845;DHT22;9047;53.486;10.218;2023-06-14T07:30:25;28.60;82.90
17845;DHT22;9047;53.486;10.218;2023-06-14T07:32:52;28.80;80.70
17845;DHT22;9047;53.486;10.218;2023-06-14T07:35:30;28.70;80.70
17845;DHT22;9047;53.486;10.218;2023-06-14T07:37:57;28.70;81.00
17845;DHT22;9047;53.486;10.218;2023-06-14T07:40:25;28.80;80.60
17845;DHT22;9047;53.486;10.218;2023-06-14T07:42:54;29.00;80.40
17845;DHT22;9047;53.486;10.218;2023-06-14T07:45:22;29.00;79.30
17845;DHT22;9047;53.486;10.218;2023-06-14T07:47:49;29.00;78.00
17845;DHT22;9047;53.486;10.218;2023-06-14T07:50:22;29.00;78.70
17845;DHT22;9047;53.486;10.218;2023-06-14T07:52:51;29.00;77.60
17845;DHT22;9047;53.486;10.218;2023-06-14T07:55:18;29.00;77.20
17845;DHT22;9047;53.486;10.218;2023-06-14T07:57:48;29.00;77.20
17845;DHT22;9047;53.486;10.218;2023-06-14T08:00:18;29.00;77.60
17845;DHT22;9047;53.486;10.218;2023-06-14T08:02:47;29.00;77.40
17845;DHT22;9047;53.486;10.218;2023-06-14T08:05:13;28.90;76.90
17845;DHT22;9047;53.486;10.218;2023-06-14T08:07:40;28.90;78.40
17845;DHT22;9047;53.486;10.218;2023-06-14T08:10:09;28.90;77.50
17845;DHT22;9047;53.486;10.218;2023-06-14T08:12:37;29.00;76.70
17845;DHT22;9047;53.486;10.218;2023-06-14T08:15:05;28.80;75.90
17845;DHT22;9047;53.486;10.218;2023-06-14T08:17:33;28.60;76.60
17845;DHT22;9047;53.486;10.218;2023-06-14T08:20:01;28.60;77.30
17845;DHT22;9047;53.486;10.218;2023-06-14T08:22:29;28.50;77.70
17845;DHT22;9047;53.486;10.218;2023-06-14T08:24:59;28.30;77.80
17845;DHT22;9047;53.486;10.218;2023-06-14T08:27:50;28.20;77.50
17845;DHT22;9047;53.486;10.218;2023-06-14T08:30:18;27.90;78.30
17845;DHT22;9047;53.486;10.218;2023-06-14T08:32:46;27.30;79.40
17845;DHT22;9047;53.486;10.218;2023-06-14T08:35:13;26.70;81.80
17845;DHT22;9047;53.486;10.218;2023-06-14T08:37:40;26.20;81.70
17845;DHT22;9047;53.486;10.218;2023-06-14T08:40:17;25.70;82.50
17845;DHT22;9047;53.486;10.218;2023-06-14T08:42:45;25.40;82.50
17845;DHT22;9047;53.486;10.218;2023-06-14T08:45:16;25.10;83.10
17845;DHT22;9047;53.486;10.218;2023-06-14T08:47:44;24.90;83.80
17845;DHT22;9047;53.486;10.218;2023-06-14T08:50:11;24.70;84.50
17845;DHT22;9047;53.486;10.218;2023-06-14T08:52:45;24.60;85.00
17845;DHT22;9047;53.486;10.218;2023-06-14T08:55:16;24.40;85.30
17845;DHT22;9047;53.486;10.218;2023-06-14T08:57:46;24.40;86.10
17845;DHT22;9047;53.486;10.218;2023-06-14T09:00:16;24.20;85.50
17845;DHT22;9047;53.486;10.218;2023-06-14T09:02:46;24.20;86.00
17845;DHT22;9047;53.486;10.218;2023-06-14T09:05:13;24.10;86.50
17845;DHT22;9047;53.486;10.218;2023-06-14T09:07:45;24.10;86.30
17845;DHT22;9047;53.486;10.218;2023-06-14T09:10:15;24.10;86.40
17845;DHT22;9047;53.486;10.218;2023-06-14T09:12:43;24.00;85.90
17845;DHT22;9047;53.486;10.218;2023-06-14T09:15:10;24.10;86.50
17845;DHT22;9047;53.486;10.218;2023-06-14T09:17:39;24.00;87.10
17845;DHT22;9047;53.486;10.218;2023-06-14T09:20:07;24.00;86.60
17845;DHT22;9047;53.486;10.218;2023-06-14T09:22:37;24.00;86.10
17845;DHT22;9047;53.486;10.218;2023-06-14T09:25:04;24.00;87.10
17845;DHT22;9047;53.486;10.218;2023-06-14T09:27:33;24.00;86.90
17845;DHT22;9047;53.486;10.218;2023-06-14T09:30:02;24.00;86.90
17845;DHT22;9047;53.486;10.218;2023-06-14T09:32:29;24.10;86.70
17845;DHT22;9047;53.486;10.218;2023-06-14T09:35:01;24.20;85.90
17845;DHT22;9047;53.486;10.218;2023-06-14T09:37:32;24.30;86.00
17845;DHT22;9047;53.486;10.218;2023-06-14T09:40:01;24.30;86.20
17845;DHT22;9047;53.486;10.218;2023-06-14T09:42:28;24.40;86.60
17845;DHT22;9047;53.486;10.218;2023-06-14T09:44:57;24.40;84.80
17845;DHT22;9047;53.486;10.218;2023-06-14T09:47:24;24.50;85.20
17845;DHT22;9047;53.486;10.218;2023-06-14T09:49:51;24.60;86.20
17845;DHT22;9047;53.486;10.218;2023-06-14T09:52:21;24.80;86.10
17845;DHT22;9047;53.486;10.218;2023-06-14T09:54:49;24.90;85.70
17845;DHT22;9047;53.486;10.218;2023-06-14T09:57:17;24.90;86.10
17845;DHT22;9047;53.486;10.218;2023-06-14T09:59:48;25.00;85.30
17845;DHT22;9047;53.486;10.218;2023-06-14T10:02:21;25.20;85.00
17845;DHT22;9047;53.486;10.218;2023-06-14T10:04:56;25.40;84.90
17845;DHT22;9047;53.486;10.218;2023-06-14T10:07:32;25.50;84.30
17845;DHT22;9047;53.486;10.218;2023-06-14T10:10:02;25.60;83.10
17845;DHT22;9047;53.486;10.218;2023-06-14T10:12:30;25.50;83.30
17845;DHT22;9047;53.486;10.218;2023-06-14T10:14:58;25.30;84.00
17845;DHT22;9047;53.486;10.218;2023-06-14T10:17:33;25.20;84.30
17845;DHT22;9047;53.486;10.218;2023-06-14T10:20:14;25.20;82.30
17845;DHT22;9047;53.486;10.218;2023-06-14T10:22:56;25.40;83.10
17845;DHT22;9047;53.486;10.218;2023-06-14T10:25:29;25.60;83.10
17845;DHT22;9047;53.486;10.218;2023-06-14T10:28:14;25.80;80.80
17845;DHT22;9047;53.486;10.218;2023-06-14T10:31:02;25.90;80.70
17845;DHT22;9047;53.486;10.218;2023-06-14T10:33:29;26.10;80.20
17845;DHT22;9047;53.486;10.218;2023-06-14T10:36:10;26.20;80.90
17845;DHT22;9047;53.486;10.218;2023-06-14T10:38:59;26.30;78.60
17845;DHT22;9047;53.486;10.218;2023-06-14T10:41:28;26.40;79.40
17845;DHT22;9047;53.486;10.218;2023-06-14T10:47:00;26.70;79.70
17845;DHT22;9047;53.486;10.218;2023-06-14T10:49:38;26.80;79.20
17845;DHT22;9047;53.486;10.218;2023-06-14T10:52:09;26.90;79.50
17845;DHT22;9047;53.486;10.218;2023-06-14T10:55:13;26.90;79.90
17845;DHT22;9047;53.486;10.218;2023-06-14T10:57:42;26.90;80.10
17845;DHT22;9047;53.486;10.218;2023-06-14T11:00:12;26.70;80.00
17845;DHT22;9047;53.486;10.218;2023-06-14T11:05:45;26.40;80.90
17845;DHT22;9047;53.486;10.218;2023-06-14T11:11:08;26.10;80.40
17845;DHT22;9047;53.486;10.218;2023-06-14T11:13:38;26.10;80.70
17845;DHT22;9047;53.486;10.218;2023-06-14T11:16:10;26.40;81.10
17845;DHT22;9047;53.486;10.218;2023-06-14T11:18:37;26.60;80.50
17845;DHT22;9047;53.486;10.218;2023-06-14T11:21:05;26.50;79.50
17845;DHT22;9047;53.486;10.218;2023-06-14T11:23:34;26.20;80.30
17845;DHT22;9047;53.486;10.218;2023-06-14T11:26:10;25.70;80.30
17845;DHT22;9047;53.486;10.218;2023-06-14T11:28:45;25.70;81.00
17845;DHT22;9047;53.486;10.218;2023-06-14T11:31:15;25.80;78.90
17845;DHT22;9047;53.486;10.218;2023-06-14T11:33:42;25.90;78.20
17845;DHT22;9047;53.486;10.218;2023-06-14T11:36:15;25.90;79.10
17845;DHT22;9047;53.486;10.218;2023-06-14T11:38:43;25.70;80.60
17845;DHT22;9047;53.486;10.218;2023-06-14T11:41:31;25.50;80.70
17845;DHT22;9047;53.486;10.218;2023-06-14T11:44:02;25.30;81.20
17845;DHT22;9047;53.486;10.218;2023-06-14T11:46:29;25.10;82.20
17845;DHT22;9047;53.486;10.218;2023-06-14T11:48:56;25.30;83.00
17845;DHT22;9047;53.486;10.218;2023-06-14T11:51:23;25.50;81.50
17845;DHT22;9047;53.486;10.218;2023-06-14T11:53:50;25.60;81.20
17845;DHT22;9047;53.486;10.218;2023-06-14T11:56:17;25.60;80.00
17845;DHT22;9047;53.486;10.218;2023-06-14T11:58:46;25.60;81.50
17845;DHT22;9047;53.486;10.218;2023-06-14T12:01:16;25.60;81.60
17845;DHT22;9047;53.486;10.218;2023-06-14T12:03:47;25.70;81.00
17845;DHT22;9047;53.486;10.218;2023-06-14T12:06:15;26.00;80.70
17845;DHT22;9047;53.486;10.218;2023-06-14T12:08:44;26.20;80.80
17845;DHT22;9047;53.486;10.218;2023-06-14T12:11:12;26.40;78.60
17845;DHT22;9047;53.486;10.218;2023-06-14T12:13:39;26.50;78.40
17845;DHT22;9047;53.486;10.218;2023-06-14T12:16:08;26.60;77.60
17845;DHT22;9047;53.486;10.218;2023-06-14T12:18:37;26.70;77.80
17845;DHT22;9047;53.486;10.218;2023-06-14T12:21:05;27.00;78.10
17845;DHT22;9047;53.486;10.218;2023-06-14T12:23:45;27.40;77.20
17845;DHT22;9047;53.486;10.218;2023-06-14T12:26:13;27.70;76.80
17845;DHT22;9047;53.486;10.218;2023-06-14T12:28:41;27.60;76.50
17845;DHT22;9047;53.486;10.218;2023-06-14T12:31:11;27.30;77.50
17845;DHT22;9047;53.486;10.218;2023-06-14T12:33:39;26.70;77.20
17845;DHT22;9047;53.486;10.218;2023-06-14T12:36:08;26.40;78.40
17845;DHT22;9047;53.486;10.218;2023-06-14T12:38:35;26.40;77.80
17845;DHT22;9047;53.486;10.218;2023-06-14T12:41:03;26.50;79.10
17845;DHT22;9047;53.486;10.218;2023-06-14T12:43:30;26.60;76.70
17845;DHT22;9047;53.486;10.218;2023-06-14T12:45:59;26.90;77.20
17845;DHT22;9047;53.486;10.218;2023-06-14T12:48:31;27.30;76.20
17845;DHT22;9047;53.486;10.218;2023-06-14T12:51:00;27.50;76.00
17845;DHT22;9047;53.486;10.218;2023-06-14T12:53:28;27.60;75.90
17845;DHT22;9047;53.486;10.218;2023-06-14T12:55:56;27.40;76.20
17845;DHT22;9047;53.486;10.218;2023-06-14T12:58:24;27.10;76.80
17845;DHT22;9047;53.486;10.218;2023-06-14T13:00:55;26.80;77.20
17845;DHT22;9047;53.486;10.218;2023-06-14T13:03:24;26.70;78.30
17845;DHT22;9047;53.486;10.218;2023-06-14T13:05:57;26.50;79.10
17845;DHT22;9047;53.486;10.218;2023-06-14T13:08:24;26.40;77.90
17845;DHT22;9047;53.486;10.218;2023-06-14T13:10:52;26.30;78.20
17845;DHT22;9047;53.486;10.218;2023-06-14T13:13:24;26.30;78.70
17845;DHT22;9047;53.486;10.218;2023-06-14T13:15:51;26.20;77.80
17845;DHT22;9047;53.486;10.218;2023-06-14T13:18:20;26.00;78.10
17845;DHT22;9047;53.486;10.218;2023-06-14T13:20:49;25.80;79.30
17845;DHT22;9047;53.486;10.218;2023-06-14T13:23:21;25.90;79.40
17845;DHT22;9047;53.486;10.218;2023-06-14T13:25:48;26.00;78.50
17845;DHT22;9047;53.486;10.218;2023-06-14T13:28:16;26.30;79.00
17845;DHT22;9047;53.486;10.218;2023-06-14T13:30:44;26.60;77.60
17845;DHT22;9047;53.486;10.218;2023-06-14T13:33:10;26.80;78.20
17845;DHT22;9047;53.486;10.218;2023-06-14T13:35:37;26.90;76.30
17845;DHT22;9047;53.486;10.218;2023-06-14T13:38:04;26.70;76.80
17845;DHT22;9047;53.486;10.218;2023-06-14T13:40:33;26.40;77.30
17845;DHT22;9047;53.486;10.218;2023-06-14T13:43:00;26.10;77.00
17845;DHT22;9047;53.486;10.218;2023-06-14T13:45:27;25.80;77.40
17845;DHT22;9047;53.486;10.218;2023-06-14T13:47:55;25.70;78.70
17845;DHT22;9047;53.486;10.218;2023-06-14T13:50:21;25.90;78.30
17845;DHT22;9047;53.486;10.218;2023-06-14T13:52:48;26.10;76.90
17845;DHT22;9047;53.486;10.218;2023-06-14T13:55:15;26.40;77.50
17845;DHT22;9047;53.486;10.218;2023-06-14T13:57:44;26.70;77.50
17845;DHT22;9047;53.486;10.218;2023-06-14T14:00:12;26.90;77.30
17845;DHT22;9047;53.486;10.218;2023-06-14T14:02:39;26.70;77.50
17845;DHT22;9047;53.486;10.218;2023-06-14T14:05:07;26.40;78.00
17845;DHT22;9047;53.486;10.218;2023-06-14T14:07:33;26.20;77.50
17845;DHT22;9047;53.486;10.218;2023-06-14T14:10:01;25.80;78.70
17845;DHT22;9047;53.486;10.218;2023-06-14T14:12:28;25.50;79.60
17845;DHT22;9047;53.486;10.218;2023-06-14T14:14:56;25.50;80.40
17845;DHT22;9047;53.486;10.218;2023-06-14T14:17:23;25.80;80.70
17845;DHT22;9047;53.486;10.218;2023-06-14T14:19:51;26.00;80.80
17845;DHT22;9047;53.486;10.218;2023-06-14T14:22:18;26.20;78.90
17845;DHT22;9047;53.486;10.218;2023-06-14T14:24:45;26.40;78.90
17845;DHT22;9047;53.486;10.218;2023-06-14T14:27:12;26.50;78.10
17845;DHT22;9047;53.486;10.218;2023-06-14T14:29:41;26.60;78.00
17845;DHT22;9047;53.486;10.218;2023-06-14T14:32:09;26.60;77.80
17845;DHT22;9047;53.486;10.218;2023-06-14T14:34:39;26.80;77.60
17845;DHT22;9047;53.486;10.218;2023-06-14T14:37:06;26.80;77.30
17845;DHT22;9047;53.486;10.218;2023-06-14T14:39:44;26.80;76.40
17845;DHT22;9047;53.486;10.218;2023-06-14T14:42:11;26.80;77.00
17845;DHT22;9047;53.486;10.218;2023-06-14T14:44:38;26.80;77.30
17845;DHT22;9047;53.486;10.218;2023-06-14T14:47:06;26.90;76.00
17845;DHT22;9047;53.486;10.218;2023-06-14T14:49:35;27.00;76.80
17845;DHT22;9047;53.486;10.218;2023-06-14T14:52:05;27.10;75.20
17845;DHT22;9047;53.486;10.218;2023-06-14T14:54:32;27.20;75.00
17845;DHT22;9047;53.486;10.218;2023-06-14T14:57:01;27.10;75.10
17845;DHT22;9047;53.486;10.218;2023-06-14T14:59:28;27.10;75.00
17845;DHT22;9047;53.486;10.218;2023-06-14T15:01:55;27.00;74.80
17845;DHT22;9047;53.486;10.218;2023-06-14T15:04:22;26.80;75.00
17845;DHT22;9047;53.486;10.218;2023-06-14T15:06:52;26.80;75.70
17845;DHT22;9047;53.486;10.218;2023-06-14T15:09:19;26.60;75.80
17845;DHT22;9047;53.486;10.218;2023-06-14T15:11:49;26.50;74.80
17845;DHT22;9047;53.486;10.218;2023-06-14T15:14:17;26.50;75.50
17845;DHT22;9047;53.486;10.218;2023-06-14T15:16:44;26.50;75.40
17845;DHT22;9047;53.486;10.218;2023-06-14T15:19:17;26.50;75.20
17845;DHT22;9047;53.486;10.218;2023-06-14T15:21:45;26.50;74.90
17845;DHT22;9047;53.486;10.218;2023-06-14T15:24:14;26.20;75.30
17845;DHT22;9047;53.486;10.218;2023-06-14T15:26:42;25.90;75.40
17845;DHT22;9047;53.486;10.218;2023-06-14T15:29:09;25.80;76.10
17845;DHT22;9047;53.486;10.218;2023-06-14T15:31:41;25.90;76.40
17845;DHT22;9047;53.486;10.218;2023-06-14T15:34:09;25.90;76.40
17845;DHT22;9047;53.486;10.218;2023-06-14T15:36:49;25.90;76.10
17845;DHT22;9047;53.486;10.218;2023-06-14T15:39:18;26.00;76.00
17845;DHT22;9047;53.486;10.218;2023-06-14T15:41:46;26.00;76.10
17845;DHT22;9047;53.486;10.218;2023-06-14T15:44:14;26.00;74.90
17845;DHT22;9047;53.486;10.218;2023-06-14T15:46:43;26.00;75.60
17845;DHT22;9047;53.486;10.218;2023-06-14T15:49:13;26.00;75.40